createdAt,value
2022-10-05T00:00:55.659Z,100762.91
2022-10-05T00:05:59.656Z,100765.59
2022-10-05T00:11:02.461Z,100760.88
2022-10-05T00:16:09.275Z,100769.78
2022-10-05T00:21:18.134Z,100768.31
2022-10-05T00:26:22.014Z,100766.72
2022-10-05T00:31:30.281Z,100768.75
2022-10-05T00:36:34.360Z,100771.84
2022-10-05T00:41:46.308Z,100764.88
2022-10-05T00:46:54.922Z,100762.41
2022-10-05T00:52:02.577Z,100763.84
2022-10-05T00:57:16.345Z,100748.78
2022-10-05T01:02:22.378Z,100738.28
2022-10-05T01:07:30.915Z,100741.09
2022-10-05T01:12:37.952Z,100742.16
2022-10-05T01:17:42.958Z,100748.72
2022-10-05T01:23:30.485Z,100766.66
2022-10-05T01:28:36.548Z,100763.09
2022-10-05T01:33:41.872Z,100774.28
2022-10-05T01:38:46.863Z,100771.69
2022-10-05T01:43:53.033Z,100782.44
2022-10-05T01:49:13.813Z,100775.47
2022-10-05T01:54:23.572Z,100756.06
2022-10-05T01:59:31.713Z,100754.22
2022-10-05T02:05:00.868Z,100755.19
2022-10-05T02:10:01.925Z,100746.59
2022-10-05T02:15:09.628Z,100754.53
2022-10-05T02:20:13.104Z,100752.09
2022-10-05T02:25:18.037Z,100753.06
2022-10-05T02:30:22.430Z,100766.59
2022-10-05T02:35:26.831Z,100764.22
2022-10-05T02:40:36.707Z,100760.38
2022-10-05T02:45:43.156Z,100755.19
2022-10-05T02:50:49.848Z,100755.19
2022-10-05T02:55:58.909Z,100757.25
2022-10-05T03:01:07.201Z,100747.38
2022-10-05T03:06:14.116Z,100741.34
2022-10-05T03:11:22.860Z,100743.09
2022-10-05T03:16:34.549Z,100752.84
2022-10-05T03:21:45.134Z,100748.53
2022-10-05T03:26:51.972Z,100748.75
2022-10-05T03:31:59.506Z,100747.03
2022-10-05T03:37:04.486Z,100741.78
2022-10-05T03:42:11.122Z,100738.38
2022-10-05T03:47:20.545Z,100727.84
2022-10-05T03:52:24.505Z,100729.66
2022-10-05T03:57:28.330Z,100722.66
2022-10-05T04:02:35.278Z,100723.63
2022-10-05T04:07:43.439Z,100718.38
2022-10-05T04:12:49.426Z,100717.72
2022-10-05T04:17:56.609Z,100716.66
2022-10-05T04:23:02.531Z,100708.69
2022-10-05T04:28:08.041Z,100706.00
2022-10-05T04:33:13.709Z,100702.59
2022-10-05T04:38:28.340Z,100711.50
2022-10-05T04:43:35.862Z,100713.31
2022-10-05T04:48:49.694Z,100715.16
2022-10-05T04:53:54.702Z,100714.41
2022-10-05T04:59:05.144Z,100717.19
2022-10-05T05:04:17.244Z,100719.88
2022-10-05T05:09:39.282Z,100715.59
2022-10-05T05:14:48.706Z,100722.75
2022-10-05T05:19:56.775Z,100726.41
2022-10-05T05:25:15.780Z,100730.91
2022-10-05T05:30:21.799Z,100719.44
2022-10-05T05:35:45.649Z,100711.50
2022-10-05T05:40:51.528Z,100717.72
2022-10-05T05:45:58.433Z,100716.13
2022-10-05T05:51:04.962Z,100700.03
2022-10-05T05:56:10.422Z,100694.66
2022-10-05T06:01:32.146Z,100681.25
2022-10-05T06:06:39.941Z,100686.50
2022-10-05T06:11:44.628Z,100677.63
2022-10-05T06:16:49.567Z,100684.56
2022-10-05T06:21:56.096Z,100686.41
2022-10-05T06:27:09.831Z,100666.78
2022-10-05T06:32:16.590Z,100657.63
2022-10-05T06:37:24.224Z,100665.56
2022-10-05T06:42:44.369Z,100680.50
2022-10-05T06:48:07.365Z,100679.75
2022-10-05T06:53:42.637Z,100676.97
2022-10-05T06:58:52.123Z,100680.94
2022-10-05T07:04:06.100Z,100673.19
2022-10-05T07:09:18.738Z,100678.34
2022-10-05T07:14:27.342Z,100694.00
2022-10-05T07:19:35.486Z,100688.97
2022-10-05T07:24:41.727Z,100685.09
2022-10-05T07:29:49.490Z,100687.69
2022-10-05T07:34:55.831Z,100681.38
2022-10-05T07:40:07.598Z,100676.75
2022-10-05T07:45:18.013Z,100675.56
2022-10-05T07:50:23.659Z,100677.28
2022-10-05T07:55:28.353Z,100673.53
2022-10-05T08:00:43.821Z,100666.22
2022-10-05T08:05:47.193Z,100655.41
2022-10-05T08:10:53.086Z,100656.88
2022-10-05T08:15:57.180Z,100657.09
2022-10-05T08:21:00.097Z,100664.81
2022-10-05T08:26:08.109Z,100665.47
2022-10-05T08:31:15.080Z,100651.19
2022-10-05T08:36:17.881Z,100651.81
2022-10-05T08:41:53.669Z,100658.03
2022-10-05T08:47:17.964Z,100655.94
2022-10-05T08:52:29.052Z,100665.72
2022-10-05T08:57:58.781Z,100666.75
2022-10-05T09:03:34.644Z,100666.66
2022-10-05T09:08:44.836Z,100658.13
2022-10-05T09:14:07.980Z,100660.97
2022-10-05T09:20:01.611Z,100650.38
2022-10-05T09:25:22.855Z,100661.53
2022-10-05T09:30:46.598Z,100666.56
2022-10-05T09:36:12.369Z,100657.81
2022-10-05T09:41:30.835Z,100651.31
2022-10-05T09:46:44.506Z,100647.28
2022-10-05T09:52:25.425Z,100636.63
2022-10-05T09:57:56.595Z,100633.78
2022-10-05T10:03:10.891Z,100631.19
2022-10-05T10:08:22.133Z,100623.28
2022-10-05T10:13:53.323Z,100623.75
2022-10-05T10:19:07.942Z,100620.53
2022-10-05T10:24:27.508Z,100615.84
2022-10-05T10:30:04.447Z,100627.41
2022-10-05T10:35:19.877Z,100633.41
2022-10-05T10:40:27.739Z,100620.44
2022-10-05T10:45:45.430Z,100613.81
2022-10-05T10:51:00.841Z,100605.97
2022-10-05T10:56:27.843Z,100604.22
2022-10-05T11:01:33.861Z,100598.94
2022-10-05T11:06:58.332Z,100597.44
2022-10-05T11:12:36.081Z,100586.91
2022-10-05T11:18:02.200Z,100587.00
2022-10-05T11:23:30.628Z,100589.72
2022-10-05T11:29:20.549Z,100598.19
2022-10-05T11:34:44.920Z,100577.81
2022-10-05T11:39:58.672Z,100581.47
2022-10-05T11:45:17.111Z,100573.81
2022-10-05T11:50:22.043Z,100561.75
2022-10-05T11:55:25.504Z,100558.63
2022-10-05T12:00:32.468Z,100543.72
2022-10-05T12:05:39.200Z,100554.13
2022-10-05T12:10:44.523Z,100542.03
2022-10-05T12:15:49.328Z,100539.19
2022-10-05T12:20:55.167Z,100540.69
2022-10-05T12:26:00.214Z,100527.53
2022-10-05T12:31:14.042Z,100534.75
2022-10-05T12:36:20.299Z,100535.94
2022-10-05T12:41:25.815Z,100523.50
2022-10-05T12:46:32.571Z,100523.53
2022-10-05T12:51:39.959Z,100517.50
2022-10-05T12:56:44.779Z,100509.59
2022-10-05T13:01:50.170Z,100514.03
2022-10-05T13:07:05.609Z,100519.53
2022-10-05T13:12:10.144Z,100503.16
2022-10-05T13:17:16.075Z,100505.22
2022-10-05T13:22:35.758Z,100501.94
2022-10-05T13:27:41.753Z,100503.38
2022-10-05T13:32:47.905Z,100493.72
2022-10-05T13:37:56.504Z,100498.09
2022-10-05T13:43:03.991Z,100485.94
2022-10-05T13:48:13.623Z,100493.28
2022-10-05T13:53:21.406Z,100492.50
2022-10-05T13:58:27.564Z,100486.13
2022-10-05T14:03:35.047Z,100480.47
2022-10-05T14:08:50.558Z,100485.47
2022-10-05T14:13:53.422Z,100490.16
2022-10-05T14:18:58.385Z,100483.44
2022-10-05T14:24:39.432Z,100481.00
2022-10-05T14:29:43.145Z,100488.72
2022-10-05T14:34:46.282Z,100473.44
2022-10-05T14:39:51.924Z,100475.09
2022-10-05T14:44:59.925Z,100474.03
2022-10-05T14:50:13.934Z,100474.13
2022-10-05T14:55:25.204Z,100464.69
2022-10-05T15:00:28.731Z,100456.81
2022-10-05T15:05:34.382Z,100452.25
2022-10-05T15:10:41.642Z,100450.22
2022-10-05T15:15:48.709Z,100447.88
2022-10-05T15:20:54.229Z,100447.88
2022-10-05T15:26:05.049Z,100443.88
2022-10-05T15:31:25.091Z,100444.28
2022-10-05T15:36:35.437Z,100436.75
2022-10-05T15:41:49.816Z,100441.34
2022-10-05T15:46:58.118Z,100439.00
2022-10-05T15:52:04.426Z,100441.81
2022-10-05T15:57:11.599Z,100442.91
2022-10-05T16:02:17.191Z,100443.31
2022-10-05T16:07:39.136Z,100440.13
2022-10-05T16:12:49.101Z,100449.34
2022-10-05T16:18:08.979Z,100458.53
2022-10-05T16:23:15.261Z,100455.75
2022-10-05T16:28:29.108Z,100458.44
2022-10-05T16:33:37.265Z,100459.63
2022-10-05T16:38:42.960Z,100458.31
2022-10-05T16:43:50.754Z,100455.97
2022-10-05T16:48:56.824Z,100447.19
2022-10-05T16:54:03.983Z,100443.75
2022-10-05T16:59:32.271Z,100454.38
2022-10-05T17:04:41.422Z,100459.41
2022-10-05T17:09:59.424Z,100462.56
2022-10-05T17:15:12.222Z,100471.38
2022-10-05T17:20:30.243Z,100466.75
2022-10-05T17:25:37.960Z,100466.47
2022-10-05T17:30:53.771Z,100461.09
2022-10-05T17:36:13.585Z,100458.06
2022-10-05T17:41:21.286Z,100454.38
2022-10-05T17:46:39.316Z,100455.84
2022-10-05T17:52:16.775Z,100452.16
2022-10-05T17:57:22.063Z,100452.91
2022-10-05T18:02:39.772Z,100447.28
2022-10-05T18:07:42.616Z,100457.19
2022-10-05T18:12:46.500Z,100446.94
2022-10-05T18:17:51.638Z,100446.69
2022-10-05T18:22:55.619Z,100449.13
2022-10-05T18:28:06.957Z,100452.22
2022-10-05T18:33:46.145Z,100461.00
2022-10-05T18:38:53.545Z,100459.03
2022-10-05T18:44:02.131Z,100464.00
2022-10-05T18:49:11.452Z,100466.84
2022-10-05T18:54:25.057Z,100473.69
2022-10-05T18:59:38.596Z,100479.53
2022-10-05T19:04:50.891Z,100484.91
2022-10-05T19:10:00.223Z,100498.22
2022-10-05T19:15:07.041Z,100502.66
2022-10-05T19:20:19.754Z,100511.69
2022-10-05T19:25:27.636Z,100520.50
2022-10-05T19:30:35.184Z,100531.75
2022-10-05T19:35:47.294Z,100544.97
2022-10-05T19:40:56.253Z,100539.44
2022-10-05T19:46:04.119Z,100547.13
2022-10-05T19:51:13.200Z,100551.41
2022-10-05T19:56:20.331Z,100554.22
2022-10-05T20:01:25.104Z,100546.00
2022-10-05T20:06:31.058Z,100556.69
2022-10-05T20:11:34.970Z,100566.59
2022-10-05T20:16:55.422Z,100574.53
2022-10-05T20:22:00.432Z,100587.88
2022-10-05T20:27:05.214Z,100587.72
2022-10-05T20:32:09.897Z,100591.28
2022-10-05T20:37:14.624Z,100609.00
2022-10-05T20:42:17.494Z,100613.41
2022-10-05T20:47:20.131Z,100611.56
2022-10-05T20:52:24.131Z,100622.31
2022-10-05T20:57:26.820Z,100630.31
2022-10-05T21:02:29.801Z,100634.44
2022-10-05T21:07:34.939Z,100638.00
2022-10-05T21:12:38.026Z,100634.31
2022-10-05T21:17:41.111Z,100636.88
2022-10-05T21:22:45.132Z,100646.91
2022-10-05T21:27:48.655Z,100647.53
2022-10-05T21:32:51.424Z,100657.47
2022-10-05T21:37:55.924Z,100648.75
2022-10-05T21:42:58.756Z,100661.72
2022-10-05T21:48:01.419Z,100657.94
2022-10-05T21:53:05.870Z,100675.91
2022-10-05T21:58:08.596Z,100671.97
2022-10-05T22:03:11.337Z,100675.66
2022-10-05T22:08:21.992Z,100676.66
2022-10-05T22:13:25.921Z,100688.03
2022-10-05T22:18:28.856Z,100681.06
2022-10-05T22:23:35.781Z,100685.97
2022-10-05T22:28:38.798Z,100687.19
2022-10-05T22:33:41.810Z,100690.47
2022-10-05T22:38:46.744Z,100690.72
2022-10-05T22:43:50.754Z,100689.63
2022-10-05T22:48:53.796Z,100686.19
2022-10-05T22:53:57.835Z,100698.06
2022-10-05T22:59:00.499Z,100696.72
2022-10-05T23:04:04.414Z,100702.47
2022-10-05T23:09:08.462Z,100699.00
2022-10-05T23:14:11.716Z,100709.28
2022-10-05T23:19:14.515Z,100718.56
2022-10-05T23:24:18.760Z,100716.31
2022-10-05T23:29:21.791Z,100722.91
2022-10-05T23:34:25.807Z,100721.44
2022-10-05T23:39:29.827Z,100725.09
2022-10-05T23:44:32.563Z,100723.59
2022-10-05T23:49:35.648Z,100737.53
2022-10-05T23:54:39.674Z,100734.84
2022-10-05T23:59:42.359Z,100735.81
